Terminal Aerodrome Forecast
Issued by NWS

Home | Current Version | Previous Version | Text Only | Print | Product List | Glossary On
Versions: 1 2 3 4 5 6 7 8 9 10 11 12 13
000
FTUS41 KCAR 071727
TAFBHB
TAF
KBHB 071727Z 0718/0818 20013G22KT P6SM SCT040
     FM080000 18010G18KT P6SM BKN025
     FM080200 18009KT 6SM -SHRA SCT008 OVC015
     FM080400 19008KT 3SM SHRA BR OVC008
     FM080800 20007KT 1SM -SHRA BR OVC004
     FM081300 20006KT 4SM SHRA SCT008 OVC015
     FM081600 24008KT P6SM SCT025 BKN040
      AMD LTD TO CLD VIS AND WIND=

USA.gov is the U.S. government's official web portal to all federal, state and local government web resources and services.